Time;durP1;ratioP1;P1;durP2;ratioP2;P2;SDS_P1;SDS_P2;PMS_P1;PMS_P2;Temp;Humidity;BMP_temperature;BMP_pressure;BME280_temperature;BME280_humidity;BME280_pressure;Samples;Min_cycle;Max_cycle;Signal;HPM_P1;HPM_P2
2022/10/15 00:01:22;;;;;;;1.10;1.00;;;20.00;59.80;;;;;;5029465;28;20197;-71
2022/10/15 00:03:49;;;;;;;1.33;1.10;;;20.00;59.80;;;;;;5014567;28;20188;-71
2022/10/15 00:06:17;;;;;;;1.25;1.15;;;20.00;59.80;;;;;;5013148;28;20207;-71
2022/10/15 00:08:44;;;;;;;2.38;1.30;;;20.00;59.80;;;;;;5014972;28;20224;-71
2022/10/15 00:11:12;;;;;;;0.90;0.90;;;20.00;59.80;;;;;;5014344;28;20200;-71
2022/10/15 00:13:39;;;;;;;1.30;1.20;;;19.90;59.70;;;;;;5013333;28;20200;-71
2022/10/15 00:16:09;;;;;;;1.23;1.13;;;20.00;59.80;;;;;;5014298;28;20216;-71
2022/10/15 00:18:36;;;;;;;1.20;1.10;;;19.90;59.70;;;;;;5015340;28;20204;-71
2022/10/15 00:21:06;;;;;;;1.10;1.10;;;19.90;59.70;;;;;;5017279;28;20631;-71
2022/10/15 00:23:33;;;;;;;2.33;1.10;;;19.90;59.70;;;;;;5016862;28;20295;-71
2022/10/15 00:26:04;;;;;;;1.30;1.20;;;20.00;59.80;;;;;;5016722;28;20220;-71
2022/10/15 00:28:32;;;;;;;1.00;1.00;;;19.90;59.80;;;;;;5016303;28;20221;-71
2022/10/15 00:31:06;;;;;;;1.45;1.10;;;19.90;59.70;;;;;;5016280;28;20189;-71
2022/10/15 00:33:34;;;;;;;1.20;1.10;;;19.90;59.80;;;;;;5016184;28;20192;-71
2022/10/15 00:36:03;;;;;;;1.33;1.15;;;19.90;59.60;;;;;;5016591;28;20196;-71
2022/10/15 00:38:30;;;;;;;1.05;0.95;;;19.90;59.60;;;;;;5016045;28;20212;-71
2022/10/15 00:40:57;;;;;;;0.90;0.90;;;19.90;59.60;;;;;;5015929;28;20243;-71
2022/10/15 00:43:42;;;;;;;1.50;1.10;;;19.90;59.70;;;;;;5016218;28;20292;-71
2022/10/15 00:46:18;;;;;;;1.23;1.13;;;19.90;59.60;;;;;;5015969;28;20255;-71
2022/10/15 00:48:48;;;;;;;1.00;1.00;;;19.90;59.60;;;;;;5015565;28;20219;-71
2022/10/15 00:51:15;;;;;;;1.00;1.00;;;19.90;59.60;;;;;;5016441;28;20644;-71
2022/10/15 00:53:42;;;;;;;1.92;1.02;;;19.90;59.60;;;;;;5015823;28;20215;-71
2022/10/15 00:56:09;;;;;;;1.02;0.90;;;19.90;59.60;;;;;;5016263;28;20621;-71
2022/10/15 00:58:36;;;;;;;1.30;1.20;;;19.90;59.60;;;;;;5016171;28;20279;-71
2022/10/15 01:01:03;;;;;;;1.10;1.00;;;20.00;59.60;;;;;;5016125;28;20755;-71
2022/10/15 01:03:30;;;;;;;1.25;0.93;;;19.90;59.50;;;;;;5015904;28;20702;-71
2022/10/15 01:05:59;;;;;;;1.20;1.10;;;19.90;59.60;;;;;;5001470;28;20247;-71
2022/10/15 01:08:26;;;;;;;0.90;0.90;;;19.90;59.50;;;;;;5018646;28;20209;-71
2022/10/15 01:10:57;;;;;;;1.20;1.10;;;19.90;59.50;;;;;;5016930;28;20196;-71
2022/10/15 01:13:28;;;;;;;1.00;1.00;;;19.90;59.40;;;;;;5016372;28;20204;-71
2022/10/15 01:15:57;;;;;;;1.27;1.17;;;19.90;59.50;;;;;;5015644;28;20252;-71
2022/10/15 01:18:25;;;;;;;0.80;0.80;;;19.90;59.50;;;;;;5015419;28;20652;-71
2022/10/15 01:20:57;;;;;;;2.20;0.98;;;19.90;59.50;;;;;;5015223;28;20208;-71
2022/10/15 01:24:11;;;;;;;1.08;1.00;;;19.90;59.60;;;;;;5015961;28;20284;-71
2022/10/15 01:27:24;;;;;;;1.00;1.00;;;19.90;59.50;;;;;;4956239;28;20224;-71
2022/10/15 01:30:23;;;;;;;1.00;0.85;;;19.90;59.50;;;;;;5014373;28;20690;-71
2022/10/15 01:33:26;;;;;;;0.90;0.90;;;19.90;59.60;;;;;;5015281;28;20200;-71
2022/10/15 01:35:54;;;;;;;1.85;1.10;;;19.90;59.50;;;;;;5015665;28;20227;-71
2022/10/15 01:38:30;;;;;;;1.17;1.00;;;19.90;59.50;;;;;;4999937;28;20251;-71
2022/10/15 01:40:58;;;;;;;1.20;1.10;;;19.80;59.40;;;;;;5015144;28;20192;-71
2022/10/15 01:43:29;;;;;;;1.20;1.10;;;19.90;59.60;;;;;;5015046;28;20200;-71
2022/10/15 01:46:24;;;;;;;1.10;1.00;;;19.80;59.40;;;;;;5015041;28;20679;-70
2022/10/15 01:49:02;;;;;;;1.15;0.82;;;19.90;59.60;;;;;;5015507;28;20217;-70
2022/10/15 01:51:30;;;;;;;1.50;1.00;;;19.80;59.50;;;;;;5014786;28;20243;-70
2022/10/15 01:53:58;;;;;;;0.90;0.90;;;19.90;59.60;;;;;;5015266;28;20213;-70
2022/10/15 01:56:25;;;;;;;1.10;1.00;;;19.80;59.50;;;;;;5015829;28;20212;-70
2022/10/15 01:58:54;;;;;;;1.33;1.00;;;19.80;59.50;;;;;;5016403;28;20200;-70
2022/10/15 02:01:21;;;;;;;1.75;1.10;;;19.80;59.50;;;;;;5015695;28;20215;-70
2022/10/15 02:03:49;;;;;;;1.20;0.90;;;19.80;59.60;;;;;;5014830;28;20201;-70
2022/10/15 02:06:21;;;;;;;0.98;0.90;;;19.90;59.70;;;;;;5014561;28;20208;-70
2022/10/15 02:08:55;;;;;;;1.63;0.95;;;19.80;59.50;;;;;;5014380;28;20216;-71
2022/10/15 02:11:23;;;;;;;0.65;0.65;;;19.80;59.60;;;;;;5014258;28;20199;-71
2022/10/15 02:13:52;;;;;;;0.80;0.80;;;19.80;59.50;;;;;;5014194;28;20207;-71
2022/10/15 02:16:22;;;;;;;0.90;0.90;;;19.80;59.60;;;;;;5014003;28;20208;-71
2022/10/15 02:18:53;;;;;;;1.73;0.90;;;19.80;59.60;;;;;;5014198;28;20200;-71
2022/10/15 02:21:24;;;;;;;1.05;0.88;;;19.80;59.60;;;;;;5014046;28;20279;-71
2022/10/15 02:23:52;;;;;;;0.90;0.90;;;19.80;59.60;;;;;;4998199;28;20275;-71
2022/10/15 02:26:24;;;;;;;1.00;1.00;;;19.80;59.50;;;;;;5030749;28;20203;-71
2022/10/15 02:28:53;;;;;;;0.80;0.80;;;19.80;59.50;;;;;;5013867;28;20216;-70
2022/10/15 02:31:21;;;;;;;1.48;0.95;;;19.80;59.60;;;;;;5013916;28;20554;-70
2022/10/15 02:33:48;;;;;;;1.13;0.95;;;19.80;59.50;;;;;;5014031;28;20686;-69
2022/10/15 02:36:15;;;;;;;0.90;0.90;;;19.80;59.60;;;;;;5014186;28;20212;-69
2022/10/15 02:38:44;;;;;;;0.68;0.68;;;19.80;59.60;;;;;;5013754;28;20201;-69
2022/10/15 02:41:12;;;;;;;0.80;0.80;;;19.80;59.60;;;;;;5013005;28;20212;-70
2022/10/15 02:43:40;;;;;;;0.98;0.98;;;19.80;59.60;;;;;;5013594;28;20710;-70
2022/10/15 02:46:07;;;;;;;0.80;0.80;;;19.80;59.60;;;;;;5013813;28;20648;-70
2022/10/15 02:48:34;;;;;;;0.73;0.73;;;19.80;59.60;;;;;;4997488;28;20208;-70
2022/10/15 02:51:01;;;;;;;0.80;0.80;;;19.80;59.60;;;;;;5013521;28;20638;-70
2022/10/15 02:53:32;;;;;;;0.60;0.60;;;19.80;59.60;;;;;;5014010;28;20224;-70
2022/10/15 02:56:00;;;;;;;1.88;0.95;;;19.80;59.50;;;;;;5014635;28;20216;-70
2022/10/15 02:58:28;;;;;;;0.90;0.90;;;19.80;59.60;;;;;;5013705;28;20224;-70
2022/10/15 03:00:55;;;;;;;1.13;0.90;;;19.80;59.60;;;;;;5014120;28;20200;-70
2022/10/15 03:03:22;;;;;;;0.70;0.70;;;19.80;59.60;;;;;;5013798;28;20200;-70
2022/10/15 03:05:49;;;;;;;1.08;0.90;;;19.80;59.60;;;;;;5013623;28;20217;-70
2022/10/15 03:08:16;;;;;;;1.05;0.90;;;19.80;59.60;;;;;;5014967;28;20220;-70
2022/10/15 03:10:45;;;;;;;1.08;1.00;;;19.80;59.60;;;;;;5013415;28;20216;-69
2022/10/15 03:13:14;;;;;;;1.40;1.00;;;19.80;59.60;;;;;;5014180;28;20216;-69
2022/10/15 03:15:49;;;;;;;0.80;0.80;;;19.80;59.60;;;;;;5014196;28;20220;-69
2022/10/15 03:18:16;;;;;;;1.05;0.95;;;19.90;59.60;;;;;;5014111;28;20255;-69
2022/10/15 03:20:43;;;;;;;0.93;0.93;;;19.90;59.60;;;;;;5015127;28;20204;-69
2022/10/15 03:23:13;;;;;;;0.73;0.73;;;19.90;59.50;;;;;;4997739;28;20239;-69
2022/10/15 03:25:40;;;;;;;1.10;1.00;;;19.90;59.40;;;;;;5013159;28;20228;-69
2022/10/15 03:28:07;;;;;;;0.85;0.85;;;20.00;59.30;;;;;;5013448;28;20200;-69
2022/10/15 03:30:42;;;;;;;0.70;0.70;;;20.00;59.20;;;;;;5013254;28;20205;-69
2022/10/15 03:33:10;;;;;;;0.80;0.80;;;20.00;59.00;;;;;;5013480;28;20192;-69
2022/10/15 03:35:38;;;;;;;0.85;0.85;;;20.10;58.90;;;;;;5012719;28;20598;-69
2022/10/15 03:38:05;;;;;;;0.85;0.80;;;20.20;58.90;;;;;;4997301;28;20220;-70
2022/10/15 03:40:33;;;;;;;0.88;0.73;;;20.20;58.70;;;;;;5012888;28;20197;-70
2022/10/15 03:43:12;;;;;;;0.95;0.90;;;20.30;58.70;;;;;;5013316;28;20667;-70
2022/10/15 03:45:39;;;;;;;0.80;0.80;;;20.30;58.50;;;;;;5013189;28;20213;-69
2022/10/15 03:48:18;;;;;;;0.70;0.70;;;20.30;58.50;;;;;;5012828;28;20275;-69
2022/10/15 03:50:45;;;;;;;0.98;0.95;;;20.30;58.30;;;;;;4996636;28;20220;-69
2022/10/15 03:53:13;;;;;;;0.75;0.73;;;20.40;58.30;;;;;;5012983;28;20205;-69
2022/10/15 03:55:40;;;;;;;0.98;0.98;;;20.40;58.40;;;;;;5012708;28;20255;-70
2022/10/15 03:58:08;;;;;;;0.80;0.80;;;20.40;58.30;;;;;;5012692;28;20197;-70
2022/10/15 04:00:41;;;;;;;0.77;0.77;;;20.40;58.20;;;;;;5012758;28;20247;-70
2022/10/15 04:03:08;;;;;;;0.70;0.70;;;20.40;58.20;;;;;;5012829;28;20200;-70
2022/10/15 04:05:36;;;;;;;1.08;0.98;;;20.40;58.10;;;;;;5012906;28;20239;-70
2022/10/15 04:08:07;;;;;;;0.90;0.90;;;20.50;58.20;;;;;;5013641;28;20548;-70
2022/10/15 04:10:37;;;;;;;1.52;0.90;;;20.50;58.10;;;;;;5012980;28;20212;-70
2022/10/15 04:13:04;;;;;;;0.70;0.70;;;20.50;58.10;;;;;;5013097;28;20538;-70
2022/10/15 04:15:33;;;;;;;0.70;0.70;;;20.50;58.00;;;;;;5012944;28;20212;-70
2022/10/15 04:18:05;;;;;;;0.80;0.80;;;20.50;58.00;;;;;;5012441;28;20228;-70
2022/10/15 04:20:32;;;;;;;1.60;0.90;;;20.50;58.10;;;;;;5012940;28;20202;-70
2022/10/15 04:23:12;;;;;;;0.60;0.60;;;20.50;58.00;;;;;;4998156;28;20189;-70
2022/10/15 04:25:42;;;;;;;0.80;0.70;;;20.50;58.00;;;;;;5012996;28;20244;-70
2022/10/15 04:28:10;;;;;;;0.90;0.90;;;20.50;58.00;;;;;;5013245;28;20204;-70
2022/10/15 04:30:39;;;;;;;0.88;0.80;;;20.50;58.00;;;;;;5013517;28;20699;-70
2022/10/15 04:33:09;;;;;;;0.80;0.80;;;20.50;58.00;;;;;;5013969;28;20192;-70
2022/10/15 04:35:36;;;;;;;1.00;1.00;;;20.50;58.00;;;;;;5012784;28;20284;-70
2022/10/15 04:38:14;;;;;;;1.00;0.90;;;20.50;58.10;;;;;;5029920;28;20567;-70
2022/10/15 04:41:04;;;;;;;0.88;0.80;;;20.60;58.20;;;;;;5013183;28;20193;-70
2022/10/15 04:43:44;;;;;;;0.70;0.70;;;20.50;58.00;;;;;;4999092;28;20189;-70
2022/10/15 04:46:12;;;;;;;0.80;0.80;;;20.50;58.20;;;;;;5013426;28;20392;-69
2022/10/15 04:48:40;;;;;;;0.80;0.80;;;20.50;58.30;;;;;;5012897;28;20209;-70
2022/10/15 04:51:12;;;;;;;0.70;0.70;;;20.50;58.30;;;;;;5013043;28;20212;-70
2022/10/15 04:54:00;;;;;;;0.70;0.70;;;20.40;58.30;;;;;;5014925;28;20581;-70
2022/10/15 04:56:29;;;;;;;1.08;0.88;;;20.40;58.50;;;;;;5014704;28;20243;-70
2022/10/15 04:58:56;;;;;;;0.63;0.63;;;20.40;58.50;;;;;;5013399;28;20200;-70
2022/10/15 05:01:27;;;;;;;2.00;0.80;;;20.40;58.60;;;;;;5013646;28;20197;-70
2022/10/15 05:04:04;;;;;;;1.23;0.70;;;20.30;58.50;;;;;;5013646;28;20219;-70
2022/10/15 05:06:33;;;;;;;3.10;0.98;;;20.30;58.50;;;;;;5016028;28;20200;-70
2022/10/15 05:09:15;;;;;;;0.82;0.82;;;20.30;58.50;;;;;;5016668;28;20220;-70
2022/10/15 05:11:48;;;;;;;1.75;0.90;;;20.30;58.60;;;;;;5001076;28;20215;-70
2022/10/15 05:14:15;;;;;;;0.80;0.60;;;20.30;58.70;;;;;;5016218;28;20707;-70
2022/10/15 05:16:42;;;;;;;1.42;0.90;;;20.30;58.80;;;;;;5015825;28;20223;-70
2022/10/15 05:19:10;;;;;;;0.85;0.80;;;20.30;58.80;;;;;;5016407;28;20193;-70
2022/10/15 05:21:40;;;;;;;1.42;0.80;;;20.20;58.70;;;;;;5015852;28;20664;-70
2022/10/15 05:24:19;;;;;;;0.55;0.52;;;20.30;58.90;;;;;;5015648;28;20637;-70
2022/10/15 05:27:09;;;;;;;0.80;0.70;;;20.20;58.80;;;;;;5016779;28;20280;-70
2022/10/15 05:29:38;;;;;;;1.85;0.80;;;20.20;58.90;;;;;;5015164;28;20731;-70
2022/10/15 05:32:05;;;;;;;0.98;0.80;;;20.20;59.00;;;;;;5016129;28;20251;-70
2022/10/15 05:34:32;;;;;;;2.75;0.98;;;20.20;59.00;;;;;;5014982;28;20212;-70
2022/10/15 05:37:04;;;;;;;0.98;0.70;;;20.20;59.00;;;;;;5015891;28;20243;-70
2022/10/15 05:39:33;;;;;;;1.80;0.73;;;20.20;59.00;;;;;;5015124;28;20210;-70
2022/10/15 05:42:00;;;;;;;0.80;0.80;;;20.10;59.00;;;;;;5015258;28;20598;-70
2022/10/15 05:44:40;;;;;;;2.55;0.90;;;20.10;59.00;;;;;;5014797;28;20231;-70
2022/10/15 05:47:10;;;;;;;2.80;0.70;;;20.10;59.00;;;;;;5014722;28;20201;-70
2022/10/15 05:49:38;;;;;;;1.02;0.60;;;20.10;59.00;;;;;;5014693;28;20247;-70
2022/10/15 05:52:20;;;;;;;1.67;0.80;;;20.10;59.00;;;;;;5015508;28;20193;-70
2022/10/15 05:55:24;;;;;;;2.55;0.82;;;20.10;59.10;;;;;;5008024;28;20598;-70
2022/10/15 05:57:51;;;;;;;2.80;0.93;;;20.10;59.10;;;;;;5014775;28;20197;-70
2022/10/15 06:00:19;;;;;;;0.75;0.68;;;20.10;59.20;;;;;;5014688;28;20196;-70
2022/10/15 06:02:52;;;;;;;0.75;0.75;;;20.10;59.00;;;;;;5014512;28;20197;-70
2022/10/15 06:05:21;;;;;;;1.25;0.70;;;20.00;58.80;;;;;;5014649;28;20216;-70
2022/10/15 06:07:48;;;;;;;1.92;0.80;;;20.00;59.00;;;;;;5014886;28;20207;-70
2022/10/15 06:10:16;;;;;;;0.80;0.70;;;20.00;58.90;;;;;;5014371;28;20227;-70
2022/10/15 06:12:49;;;;;;;0.70;0.70;;;20.10;58.90;;;;;;5014559;28;20228;-70
2022/10/15 06:15:17;;;;;;;0.68;0.60;;;20.10;58.90;;;;;;5013941;28;20232;-70
2022/10/15 06:17:44;;;;;;;0.50;0.50;;;20.20;58.80;;;;;;4997851;28;20201;-70
2022/10/15 06:20:12;;;;;;;0.70;0.70;;;20.20;58.70;;;;;;5014324;28;20279;-70
2022/10/15 06:22:39;;;;;;;0.57;0.57;;;20.20;58.70;;;;;;5013997;28;20205;-70
2022/10/15 06:25:07;;;;;;;0.80;0.70;;;20.30;58.60;;;;;;5014460;28;20247;-70
2022/10/15 06:27:34;;;;;;;1.52;0.75;;;20.30;58.50;;;;;;5014865;28;20205;-70
2022/10/15 06:30:02;;;;;;;0.90;0.80;;;20.30;58.40;;;;;;5014653;28;20221;-70
2022/10/15 06:32:29;;;;;;;1.70;0.73;;;20.30;58.30;;;;;;5014919;28;20201;-70
2022/10/15 06:34:56;;;;;;;1.55;0.73;;;20.30;58.30;;;;;;5014695;28;20718;-70
2022/10/15 06:37:23;;;;;;;0.98;0.98;;;20.40;58.30;;;;;;4998910;28;20211;-70
2022/10/15 06:39:51;;;;;;;0.68;0.68;;;20.40;58.20;;;;;;5014149;28;20197;-70
2022/10/15 06:42:18;;;;;;;1.40;0.90;;;20.40;58.20;;;;;;4998733;28;20205;-70
2022/10/15 06:44:47;;;;;;;1.55;0.73;;;20.40;58.10;;;;;;5014812;28;20220;-70
2022/10/15 06:47:18;;;;;;;0.80;0.80;;;20.40;58.10;;;;;;5014782;28;20287;-70
2022/10/15 06:49:47;;;;;;;1.20;0.75;;;20.40;58.00;;;;;;5018001;28;20228;-70
2022/10/15 06:52:14;;;;;;;1.75;0.90;;;20.50;58.00;;;;;;5016962;28;20208;-70
2022/10/15 06:54:41;;;;;;;2.08;1.10;;;20.50;58.00;;;;;;4999799;28;20235;-71
2022/10/15 06:57:10;;;;;;;2.22;0.93;;;20.50;58.00;;;;;;5014642;28;20193;-70
2022/10/15 06:59:38;;;;;;;0.68;0.68;;;20.50;58.00;;;;;;5015665;28;20192;-70
2022/10/15 07:02:05;;;;;;;1.27;0.80;;;20.50;58.00;;;;;;5015914;28;20204;-70
2022/10/15 07:04:34;;;;;;;1.00;0.90;;;20.50;58.00;;;;;;5024865;28;20208;-70
2022/10/15 07:07:00;;;;;;;1.58;0.80;;;20.50;58.10;;;;;;5038290;28;20176;-70
2022/10/15 07:09:28;;;;;;;0.73;0.73;;;20.50;58.10;;;;;;5025287;28;20201;-70
2022/10/15 07:11:55;;;;;;;1.48;0.70;;;20.60;58.20;;;;;;5015752;28;20228;-70
2022/10/15 07:14:22;;;;;;;2.28;0.88;;;20.50;58.20;;;;;;5015186;28;20216;-70
2022/10/15 07:16:49;;;;;;;2.47;1.08;;;20.50;58.30;;;;;;5014697;28;20196;-70
2022/10/15 07:19:16;;;;;;;2.75;0.98;;;20.40;58.50;;;;;;5013471;28;20212;-70
2022/10/15 07:21:44;;;;;;;1.10;1.10;;;20.40;58.60;;;;;;5013251;28;20231;-70
2022/10/15 07:24:14;;;;;;;2.05;1.02;;;20.40;58.70;;;;;;4997682;28;20224;-70
2022/10/15 07:26:40;;;;;;;1.02;0.68;;;20.40;58.90;;;;;;5013018;28;20200;-70
2022/10/15 07:29:07;;;;;;;0.73;0.73;;;20.40;59.20;;;;;;5013756;28;20603;-70
2022/10/15 07:31:35;;;;;;;1.55;0.90;;;20.40;59.80;;;;;;5012956;28;20316;-70
2022/10/15 07:34:02;;;;;;;2.67;0.90;;;20.40;59.20;;;;;;5013117;28;20316;-70
2022/10/15 07:36:29;;;;;;;0.80;0.80;;;20.40;59.20;;;;;;5014509;28;20196;-71
2022/10/15 07:38:57;;;;;;;1.58;0.80;;;20.40;59.60;;;;;;5013758;28;20641;-71
2022/10/15 07:41:25;;;;;;;0.80;0.80;;;20.40;59.80;;;;;;5013108;28;20208;-71
2022/10/15 07:43:52;;;;;;;7.13;1.02;;;20.40;59.90;;;;;;5012855;28;20255;-71
2022/10/15 07:46:19;;;;;;;0.80;0.80;;;20.40;60.00;;;;;;5014495;28;20193;-71
2022/10/15 07:48:53;;;;;;;1.23;0.90;;;20.50;60.10;;;;;;5012732;28;20196;-71
2022/10/15 07:51:20;;;;;;;2.60;0.98;;;20.50;60.50;;;;;;5013010;28;20220;-71
2022/10/15 07:53:47;;;;;;;1.40;0.80;;;20.50;60.50;;;;;;5012877;28;20291;-71
2022/10/15 07:56:16;;;;;;;1.35;0.75;;;20.50;60.40;;;;;;5013652;28;20568;-71
2022/10/15 07:58:50;;;;;;;1.00;0.90;;;20.50;60.20;;;;;;5012801;28;20205;-71
2022/10/15 08:01:17;;;;;;;1.67;0.77;;;20.60;60.10;;;;;;5014342;28;20593;-72
2022/10/15 08:03:43;;;;;;;0.80;0.80;;;20.60;60.00;;;;;;5012586;28;20196;-71
2022/10/15 08:06:11;;;;;;;1.30;0.80;;;20.60;60.00;;;;;;5012621;28;20608;-71
2022/10/15 08:08:37;;;;;;;2.25;0.98;;;20.60;59.80;;;;;;5012871;28;20201;-71
2022/10/15 08:11:05;;;;;;;2.47;0.90;;;20.70;59.80;;;;;;5013216;28;20220;-71
2022/10/15 08:13:33;;;;;;;2.78;0.85;;;20.60;59.60;;;;;;5013001;28;20319;-71
2022/10/15 08:16:01;;;;;;;2.72;0.82;;;20.70;59.70;;;;;;5028870;28;20571;-71
2022/10/15 08:18:27;;;;;;;3.00;0.80;;;20.70;59.70;;;;;;5012677;28;20710;-71
2022/10/15 08:20:55;;;;;;;0.80;0.80;;;20.70;59.60;;;;;;5012327;28;20201;-70
2022/10/15 08:23:22;;;;;;;2.53;0.95;;;20.70;59.40;;;;;;5012379;28;20336;-70
2022/10/15 08:25:49;;;;;;;2.85;0.80;;;20.70;59.40;;;;;;5012340;28;20216;-70
2022/10/15 08:28:16;;;;;;;0.75;0.75;;;20.80;59.30;;;;;;5012416;28;20197;-70
2022/10/15 08:30:44;;;;;;;2.22;0.80;;;20.80;59.20;;;;;;5012302;28;20657;-70
2022/10/15 08:33:11;;;;;;;0.70;0.70;;;20.80;59.00;;;;;;5012527;28;20201;-70
2022/10/15 08:35:42;;;;;;;0.93;0.80;;;20.90;59.10;;;;;;5012056;28;20217;-70
2022/10/15 08:38:10;;;;;;;1.17;0.90;;;20.90;58.90;;;;;;5012880;28;20222;-70
2022/10/15 08:40:37;;;;;;;1.23;1.00;;;20.90;58.80;;;;;;5017325;28;20647;-70
2022/10/15 08:43:05;;;;;;;1.83;1.00;;;20.90;58.60;;;;;;5016139;28;20764;-70
2022/10/15 08:45:34;;;;;;;1.63;0.95;;;21.00;58.70;;;;;;5017409;28;20213;-70
2022/10/15 08:48:04;;;;;;;0.80;0.80;;;21.00;58.40;;;;;;5016252;28;20267;-70
2022/10/15 08:50:36;;;;;;;1.70;0.98;;;21.10;58.60;;;;;;5015862;28;20292;-71
2022/10/15 08:53:03;;;;;;;1.05;0.90;;;21.00;58.20;;;;;;5016668;28;20193;-71
2022/10/15 08:55:40;;;;;;;1.27;1.17;;;21.00;58.20;;;;;;5015907;28;20240;-71
2022/10/15 08:58:12;;;;;;;1.50;0.90;;;21.10;58.30;;;;;;5015886;28;20193;-71
2022/10/15 09:00:42;;;;;;;1.90;1.10;;;21.10;58.20;;;;;;5015819;28;20680;-71
2022/10/15 09:03:18;;;;;;;1.85;1.15;;;21.10;58.20;;;;;;5016546;28;20196;-71
2022/10/15 09:05:49;;;;;;;3.05;1.05;;;21.10;58.30;;;;;;5017004;28;20263;-71
2022/10/15 09:08:20;;;;;;;1.48;1.05;;;21.20;58.30;;;;;;5015629;28;20193;-71
2022/10/15 09:10:49;;;;;;;1.40;1.00;;;21.20;58.20;;;;;;5016027;28;20242;-71
2022/10/15 09:13:20;;;;;;;2.60;1.10;;;21.20;58.10;;;;;;5015860;28;20216;-71
2022/10/15 09:15:50;;;;;;;2.25;1.10;;;21.20;58.00;;;;;;5015792;28;20698;-71
2022/10/15 09:18:21;;;;;;;1.92;1.13;;;21.20;58.00;;;;;;5015667;28;20255;-71
2022/10/15 09:20:48;;;;;;;1.15;0.80;;;21.20;58.00;;;;;;5015856;28;20280;-71
2022/10/15 09:23:17;;;;;;;1.10;0.93;;;21.20;58.40;;;;;;5015895;28;20247;-71
2022/10/15 09:25:45;;;;;;;3.22;1.27;;;21.20;58.20;;;;;;5015521;28;20221;-71
2022/10/15 09:28:15;;;;;;;3.40;1.10;;;21.30;58.00;;;;;;5015750;28;20197;-71
2022/10/15 09:30:45;;;;;;;2.88;1.10;;;21.30;58.20;;;;;;5015519;28;20201;-71
2022/10/15 09:33:16;;;;;;;2.25;1.00;;;21.30;58.10;;;;;;5016075;28;20223;-71
2022/10/15 09:35:46;;;;;;;1.90;1.13;;;21.30;58.10;;;;;;5017244;28;20220;-71
2022/10/15 09:38:23;;;;;;;1.80;1.13;;;21.30;58.20;;;;;;5018015;28;20189;-71
2022/10/15 09:40:56;;;;;;;2.47;1.33;;;21.30;58.20;;;;;;5017441;28;20287;-71
2022/10/15 09:43:26;;;;;;;1.67;1.15;;;21.30;58.30;;;;;;5016737;28;20182;-71
2022/10/15 09:45:54;;;;;;;1.00;1.00;;;21.40;58.20;;;;;;5016414;28;20251;-71
2022/10/15 09:48:21;;;;;;;1.95;1.10;;;21.40;57.90;;;;;;5016294;28;20200;-71
2022/10/15 09:50:55;;;;;;;1.42;1.15;;;21.40;57.50;;;;;;5015528;28;20201;-71
2022/10/15 09:53:25;;;;;;;1.52;1.02;;;21.40;57.30;;;;;;5000562;28;20232;-71
2022/10/15 09:55:56;;;;;;;1.63;1.02;;;21.50;57.10;;;;;;5016386;28;20580;-71
2022/10/15 09:58:26;;;;;;;2.30;1.30;;;21.50;57.00;;;;;;5015964;28;20207;-70
2022/10/15 10:00:56;;;;;;;2.30;1.27;;;21.60;56.90;;;;;;5016248;28;20197;-70
2022/10/15 10:03:24;;;;;;;2.30;1.50;;;21.70;57.30;;;;;;5015334;28;20197;-70
2022/10/15 10:05:57;;;;;;;2.58;1.45;;;21.80;56.50;;;;;;5015473;28;20225;-70
2022/10/15 10:08:34;;;;;;;2.00;1.40;;;21.90;56.40;;;;;;5031596;28;20319;-70
2022/10/15 10:11:03;;;;;;;3.58;1.58;;;22.00;56.20;;;;;;5014880;28;20196;-70
2022/10/15 10:13:31;;;;;;;3.22;1.70;;;22.00;56.00;;;;;;5015187;28;20209;-70
2022/10/15 10:16:03;;;;;;;3.55;1.73;;;22.10;55.70;;;;;;5015576;28;20616;-70
2022/10/15 10:18:30;;;;;;;2.55;1.50;;;22.30;55.40;;;;;;5014256;28;20220;-70
2022/10/15 10:21:00;;;;;;;3.30;1.60;;;22.40;55.10;;;;;;5015563;28;20193;-70
2022/10/15 10:23:30;;;;;;;3.75;1.65;;;22.50;54.80;;;;;;5014165;28;20220;-70
2022/10/15 10:25:58;;;;;;;3.58;1.48;;;22.60;54.60;;;;;;5014324;28;20216;-70
2022/10/15 10:28:27;;;;;;;2.72;1.45;;;22.70;54.40;;;;;;5014197;28;20648;-70
2022/10/15 10:31:02;;;;;;;3.22;1.67;;;22.70;54.10;;;;;;5013879;28;20193;-70
2022/10/15 10:33:30;;;;;;;3.53;1.60;;;22.80;54.00;;;;;;5013780;28;20204;-70
2022/10/15 10:35:59;;;;;;;2.83;1.48;;;22.80;53.90;;;;;;5014336;28;20224;-70
2022/10/15 10:38:27;;;;;;;3.15;1.40;;;22.80;54.20;;;;;;5015194;28;20630;-71
2022/10/15 10:40:55;;;;;;;2.10;1.58;;;22.80;54.10;;;;;;5013807;28;20197;-71
2022/10/15 10:43:25;;;;;;;2.85;1.40;;;22.80;54.40;;;;;;5013895;28;20202;-71
2022/10/15 10:45:53;;;;;;;3.00;1.52;;;22.90;54.60;;;;;;5013590;28;20225;-71
2022/10/15 10:48:22;;;;;;;3.45;1.40;;;23.00;54.60;;;;;;5014774;28;20185;-71
2022/10/15 10:50:49;;;;;;;2.58;1.45;;;23.00;54.70;;;;;;5013654;28;20200;-71
2022/10/15 10:53:23;;;;;;;2.05;1.35;;;23.00;54.60;;;;;;5015088;28;20304;-71
2022/10/15 10:55:50;;;;;;;2.97;1.40;;;23.00;54.60;;;;;;5013274;28;20629;-71
2022/10/15 10:58:19;;;;;;;1.70;1.25;;;23.00;54.60;;;;;;5013669;28;20620;-71
2022/10/15 11:00:47;;;;;;;2.35;1.40;;;23.00;54.60;;;;;;5013243;28;20236;-71
2022/10/15 11:03:20;;;;;;;2.10;1.42;;;22.90;54.50;;;;;;5013820;28;20185;-71
2022/10/15 11:06:01;;;;;;;2.00;1.30;;;22.90;54.40;;;;;;5013570;28;20646;-71
2022/10/15 11:08:32;;;;;;;2.45;1.42;;;22.90;54.50;;;;;;5013277;28;20193;-70
2022/10/15 11:11:03;;;;;;;2.25;1.33;;;22.90;54.50;;;;;;5014832;28;20204;-70
2022/10/15 11:13:45;;;;;;;2.17;1.33;;;22.90;54.50;;;;;;5014300;28;20677;-70
2022/10/15 11:16:16;;;;;;;2.33;1.50;;;22.90;54.40;;;;;;5013495;28;20192;-70
2022/10/15 11:18:51;;;;;;;2.83;1.45;;;22.90;54.30;;;;;;5014202;28;20282;-70
2022/10/15 11:21:22;;;;;;;2.33;1.35;;;23.00;54.40;;;;;;5013206;28;20299;-70
2022/10/15 11:24:08;;;;;;;3.00;1.40;;;23.00;54.30;;;;;;5030073;28;20703;-70
2022/10/15 11:26:46;;;;;;;1.92;1.10;;;23.00;54.30;;;;;;5013131;28;20193;-70
2022/10/15 11:29:18;;;;;;;2.58;1.40;;;23.00;54.40;;;;;;5013555;28;20196;-70
2022/10/15 11:31:48;;;;;;;2.50;1.48;;;23.00;54.30;;;;;;5013867;28;20230;-70
2022/10/15 11:34:26;;;;;;;2.05;1.30;;;23.00;54.30;;;;;;5013148;28;20236;-70
2022/10/15 11:37:00;;;;;;;2.00;1.40;;;23.00;54.30;;;;;;5013130;28;20188;-70
2022/10/15 11:39:37;;;;;;;1.50;1.23;;;23.00;54.30;;;;;;5013155;28;20207;-70
2022/10/15 11:42:08;;;;;;;1.88;1.25;;;23.00;54.30;;;;;;5013487;28;20196;-70
2022/10/15 11:44:43;;;;;;;2.20;1.10;;;23.00;54.30;;;;;;5014132;28;20283;-70
2022/10/15 11:47:20;;;;;;;3.58;1.42;;;23.00;54.30;;;;;;5013897;28;20227;-70
2022/10/15 11:49:53;;;;;;;2.25;1.27;;;23.00;54.40;;;;;;5014139;28;20196;-70
2022/10/15 11:52:28;;;;;;;2.70;1.50;;;23.00;54.20;;;;;;5013416;28;20216;-70
2022/10/15 11:55:01;;;;;;;2.08;1.15;;;23.00;54.10;;;;;;5013764;28;20239;-71
2022/10/15 11:57:29;;;;;;;3.17;1.30;;;23.00;54.10;;;;;;5013686;28;20274;-71
2022/10/15 11:59:58;;;;;;;2.20;1.30;;;23.00;54.10;;;;;;5013813;28;20220;-71
2022/10/15 12:02:29;;;;;;;1.95;1.17;;;23.00;54.10;;;;;;5013890;28;20655;-71
2022/10/15 12:04:58;;;;;;;2.38;1.58;;;23.00;54.10;;;;;;5014871;28;20307;-71
2022/10/15 12:07:27;;;;;;;1.45;1.27;;;23.00;54.10;;;;;;5013752;28;20196;-71
2022/10/15 12:09:55;;;;;;;3.13;1.23;;;22.90;54.60;;;;;;5029924;28;20251;-71
2022/10/15 12:12:31;;;;;;;1.58;1.15;;;22.90;54.00;;;;;;5013024;28;20220;-71
2022/10/15 12:15:13;;;;;;;1.58;1.38;;;23.00;54.20;;;;;;5015543;28;20241;-71
2022/10/15 12:17:42;;;;;;;2.08;1.20;;;22.90;54.10;;;;;;5016962;28;20196;-71
2022/10/15 12:20:12;;;;;;;1.58;1.30;;;22.90;54.10;;;;;;5016668;28;20192;-71
2022/10/15 12:22:41;;;;;;;1.75;1.33;;;22.90;54.20;;;;;;5033009;28;20305;-71
2022/10/15 12:25:25;;;;;;;2.00;1.20;;;22.90;54.20;;;;;;5016397;28;20267;-71
2022/10/15 12:28:00;;;;;;;1.52;1.20;;;22.80;54.10;;;;;;5017861;28;20200;-71
2022/10/15 12:30:33;;;;;;;1.30;1.10;;;22.80;54.20;;;;;;5016619;28;20251;-71
2022/10/15 12:33:00;;;;;;;2.03;1.20;;;22.80;54.20;;;;;;5016548;28;20221;-71
2022/10/15 12:35:37;;;;;;;2.50;1.40;;;22.80;54.20;;;;;;5016274;28;20323;-71
2022/10/15 12:38:12;;;;;;;2.10;1.27;;;22.90;54.40;;;;;;5016439;28;20247;-71
2022/10/15 12:40:39;;;;;;;1.35;1.20;;;22.80;54.40;;;;;;5016625;28;20323;-71
2022/10/15 12:43:13;;;;;;;2.47;1.17;;;22.70;54.30;;;;;;5016112;28;20247;-71
2022/10/15 12:45:49;;;;;;;1.48;1.20;;;22.70;54.30;;;;;;5016281;28;20215;-71
2022/10/15 12:48:19;;;;;;;1.63;1.10;;;22.70;54.50;;;;;;5015786;28;20255;-71
2022/10/15 12:50:46;;;;;;;1.63;1.15;;;22.70;54.60;;;;;;5016082;28;20197;-71
2022/10/15 12:53:33;;;;;;;1.42;1.10;;;22.60;54.50;;;;;;5015528;28;20311;-71
2022/10/15 12:56:13;;;;;;;1.92;1.27;;;22.60;54.70;;;;;;5015842;28;20221;-71
2022/10/15 12:58:45;;;;;;;2.78;1.30;;;22.60;54.70;;;;;;5015665;28;20279;-71
2022/10/15 13:01:28;;;;;;;2.38;1.23;;;22.60;54.70;;;;;;5015939;28;20667;-71
2022/10/15 13:03:59;;;;;;;1.55;1.08;;;22.60;54.70;;;;;;5015989;28;20686;-71
2022/10/15 13:06:31;;;;;;;1.90;1.08;;;22.60;54.70;;;;;;5016136;28;20201;-71